sensor_id;sensor_type;location;lat;lon;timestamp;pressure;altitude;pressure_sealevel;temperature;humidity
4586;BME280;2305;50.118;8.952;2024-02-04T00:00:18;101487.31;;;11.01;100.00
4586;BME280;2305;50.118;8.952;2024-02-04T00:02:49;101500.91;;;10.95;100.00
4586;BME280;2305;50.118;8.952;2024-02-04T00:05:18;101487.31;;;11.01;100.00
4586;BME280;2305;50.118;8.952;2024-02-04T00:07:46;101473.44;;;11.11;100.00
4586;BME280;2305;50.118;8.952;2024-02-04T00:10:14;101484.97;;;10.96;100.00
4586;BME280;2305;50.118;8.952;2024-02-04T00:12:44;101475.69;;;10.91;100.00
4586;BME280;2305;50.118;8.952;2024-02-04T00:15:14;101479.31;;;10.76;100.00
4586;BME280;2305;50.118;8.952;2024-02-04T00:17:43;101477.75;;;10.86;100.00
4586;BME280;2305;50.118;8.952;2024-02-04T00:20:11;101477.75;;;10.86;100.00
4586;BME280;2305;50.118;8.952;2024-02-04T00:22:41;101478.63;;;10.86;100.00
4586;BME280;2305;50.118;8.952;2024-02-04T00:25:09;101477.09;;;10.82;100.00
4586;BME280;2305;50.118;8.952;2024-02-04T00:27:39;101467.72;;;10.78;100.00
4586;BME280;2305;50.118;8.952;2024-02-04T00:30:08;101465.91;;;10.79;100.00
4586;BME280;2305;50.118;8.952;2024-02-04T00:32:37;101466.06;;;10.63;100.00
4586;BME280;2305;50.118;8.952;2024-02-04T00:35:06;101466.81;;;10.65;100.00
4586;BME280;2305;50.118;8.952;2024-02-04T00:37:34;101465.78;;;10.68;100.00
4586;BME280;2305;50.118;8.952;2024-02-04T00:40:02;101471.31;;;10.77;100.00
4586;BME280;2305;50.118;8.952;2024-02-04T00:42:31;101467.81;;;10.77;100.00
4586;BME280;2305;50.118;8.952;2024-02-04T00:44:59;101456.19;;;10.67;100.00
4586;BME280;2305;50.118;8.952;2024-02-04T00:47:27;101464.16;;;10.65;100.00
4586;BME280;2305;50.118;8.952;2024-02-04T00:49:59;101459.59;;;10.81;100.00
4586;BME280;2305;50.118;8.952;2024-02-04T00:52:27;101466.34;;;10.73;100.00
4586;BME280;2305;50.118;8.952;2024-02-04T00:54:55;101458.59;;;10.70;100.00
4586;BME280;2305;50.118;8.952;2024-02-04T00:57:23;101458.72;;;10.54;100.00
4586;BME280;2305;50.118;8.952;2024-02-04T00:59:51;101466.16;;;10.88;100.00
4586;BME280;2305;50.118;8.952;2024-02-04T01:02:23;101454.03;;;10.86;100.00
4586;BME280;2305;50.118;8.952;2024-02-04T01:04:55;101453.50;;;10.81;100.00
4586;BME280;2305;50.118;8.952;2024-02-04T01:07:24;101461.09;;;10.85;100.00
4586;BME280;2305;50.118;8.952;2024-02-04T01:09:54;101462.16;;;10.83;100.00
4586;BME280;2305;50.118;8.952;2024-02-04T01:12:22;101459.75;;;10.66;100.00
4586;BME280;2305;50.118;8.952;2024-02-04T01:14:55;101453.94;;;10.61;100.00
4586;BME280;2305;50.118;8.952;2024-02-04T01:17:25;101449.97;;;10.94;100.00
4586;BME280;2305;50.118;8.952;2024-02-04T01:19:53;101457.00;;;10.67;100.00
4586;BME280;2305;50.118;8.952;2024-02-04T01:22:24;101458.53;;;10.57;100.00
4586;BME280;2305;50.118;8.952;2024-02-04T01:24:54;101441.59;;;10.47;100.00
4586;BME280;2305;50.118;8.952;2024-02-04T01:27:25;101443.84;;;10.53;100.00
4586;BME280;2305;50.118;8.952;2024-02-04T01:29:53;101453.09;;;10.46;100.00
4586;BME280;2305;50.118;8.952;2024-02-04T01:32:23;101455.66;;;10.34;100.00
4586;BME280;2305;50.118;8.952;2024-02-04T01:34:55;101449.72;;;10.44;100.00
4586;BME280;2305;50.118;8.952;2024-02-04T01:37:24;101455.91;;;10.57;100.00
4586;BME280;2305;50.118;8.952;2024-02-04T01:39:53;101463.56;;;10.34;100.00
4586;BME280;2305;50.118;8.952;2024-02-04T01:42:21;101460.34;;;10.29;100.00
4586;BME280;2305;50.118;8.952;2024-02-04T01:44:50;101470.16;;;10.27;100.00
4586;BME280;2305;50.118;8.952;2024-02-04T01:47:20;101480.88;;;10.38;100.00
4586;BME280;2305;50.118;8.952;2024-02-04T01:49:48;101465.16;;;10.50;100.00
4586;BME280;2305;50.118;8.952;2024-02-04T01:52:19;101462.00;;;10.58;100.00
4586;BME280;2305;50.118;8.952;2024-02-04T01:54:52;101460.50;;;10.68;100.00
4586;BME280;2305;50.118;8.952;2024-02-04T01:57:21;101466.34;;;10.73;100.00
4586;BME280;2305;50.118;8.952;2024-02-04T01:59:49;101460.69;;;10.51;100.00
4586;BME280;2305;50.118;8.952;2024-02-04T02:02:19;101474.81;;;10.64;100.00
4586;BME280;2305;50.118;8.952;2024-02-04T02:04:47;101464.94;;;10.53;100.00
4586;BME280;2305;50.118;8.952;2024-02-04T02:07:16;101480.31;;;10.47;100.00
4586;BME280;2305;50.118;8.952;2024-02-04T02:09:49;101474.81;;;10.50;100.00
4586;BME280;2305;50.118;8.952;2024-02-04T02:12:22;101478.75;;;10.71;100.00
4586;BME280;2305;50.118;8.952;2024-02-04T02:14:58;101475.81;;;10.75;100.00
4586;BME280;2305;50.118;8.952;2024-02-04T02:17:31;101477.34;;;10.65;100.00
4586;BME280;2305;50.118;8.952;2024-02-04T02:20:06;101474.13;;;10.74;100.00
4586;BME280;2305;50.118;8.952;2024-02-04T02:22:45;101457.22;;;10.64;100.00
4586;BME280;2305;50.118;8.952;2024-02-04T02:25:20;101453.19;;;10.59;100.00
4586;BME280;2305;50.118;8.952;2024-02-04T02:27:49;101445.78;;;10.78;100.00
4586;BME280;2305;50.118;8.952;2024-02-04T02:30:18;101451.63;;;10.69;100.00
4586;BME280;2305;50.118;8.952;2024-02-04T02:32:49;101462.78;;;10.60;100.00
4586;BME280;2305;50.118;8.952;2024-02-04T02:35:17;101457.38;;;10.61;100.00
4586;BME280;2305;50.118;8.952;2024-02-04T02:37:55;101441.44;;;10.77;100.00
4586;BME280;2305;50.118;8.952;2024-02-04T02:40:30;101449.31;;;10.64;100.00
4586;BME280;2305;50.118;8.952;2024-02-04T02:43:02;101445.97;;;10.75;100.00
4586;BME280;2305;50.118;8.952;2024-02-04T02:45:31;101436.31;;;10.61;100.00
4586;BME280;2305;50.118;8.952;2024-02-04T02:48:00;101429.91;;;10.65;100.00
4586;BME280;2305;50.118;8.952;2024-02-04T02:50:31;101444.06;;;10.50;100.00
4586;BME280;2305;50.118;8.952;2024-02-04T02:53:00;101430.25;;;10.47;100.00
4586;BME280;2305;50.118;8.952;2024-02-04T02:55:29;101437.38;;;10.59;100.00
4586;BME280;2305;50.118;8.952;2024-02-04T02:57:59;101436.31;;;10.61;100.00
4586;BME280;2305;50.118;8.952;2024-02-04T03:00:30;101436.91;;;10.38;100.00
4586;BME280;2305;50.118;8.952;2024-02-04T03:02:58;101444.00;;;10.38;100.00
4586;BME280;2305;50.118;8.952;2024-02-04T03:05:28;101437.75;;;10.53;100.00
4586;BME280;2305;50.118;8.952;2024-02-04T03:07:56;101424.41;;;10.42;100.00
4586;BME280;2305;50.118;8.952;2024-02-04T03:10:25;101410.59;;;10.24;100.00
4586;BME280;2305;50.118;8.952;2024-02-04T03:12:55;101408.84;;;10.51;100.00
4586;BME280;2305;50.118;8.952;2024-02-04T03:15:23;101403.97;;;10.45;100.00
4586;BME280;2305;50.118;8.952;2024-02-04T03:17:52;101413.97;;;10.26;100.00
4586;BME280;2305;50.118;8.952;2024-02-04T03:20:20;101413.03;;;10.41;100.00
4586;BME280;2305;50.118;8.952;2024-02-04T03:22:48;101415.75;;;10.40;100.00
4586;BME280;2305;50.118;8.952;2024-02-04T03:25:18;101424.59;;;10.39;100.00
4586;BME280;2305;50.118;8.952;2024-02-04T03:27:47;101431.66;;;10.38;100.00
4586;BME280;2305;50.118;8.952;2024-02-04T03:30:19;101428.56;;;10.32;100.00
4586;BME280;2305;50.118;8.952;2024-02-04T03:32:48;101422.00;;;10.25;100.00
4586;BME280;2305;50.118;8.952;2024-02-04T03:35:16;101419.47;;;10.09;100.00
4586;BME280;2305;50.118;8.952;2024-02-04T03:37:44;101428.06;;;10.39;100.00
4586;BME280;2305;50.118;8.952;2024-02-04T03:40:13;101411.84;;;10.19;100.00
4586;BME280;2305;50.118;8.952;2024-02-04T03:42:41;101412.69;;;10.19;100.00
4586;BME280;2305;50.118;8.952;2024-02-04T03:45:09;101396.66;;;10.36;100.00
4586;BME280;2305;50.118;8.952;2024-02-04T03:47:39;101403.66;;;10.23;100.00
4586;BME280;2305;50.118;8.952;2024-02-04T03:50:09;101407.97;;;10.10;100.00
4586;BME280;2305;50.118;8.952;2024-02-04T03:52:38;101401.38;;;10.31;100.00
4586;BME280;2305;50.118;8.952;2024-02-04T03:55:07;101402.91;;;10.21;100.00
4586;BME280;2305;50.118;8.952;2024-02-04T03:57:36;101415.13;;;10.22;100.00
4586;BME280;2305;50.118;8.952;2024-02-04T04:00:05;101415.41;;;10.18;100.00
4586;BME280;2305;50.118;8.952;2024-02-04T04:02:40;101396.91;;;10.19;100.00
4586;BME280;2305;50.118;8.952;2024-02-04T04:05:10;101400.34;;;10.20;100.00
4586;BME280;2305;50.118;8.952;2024-02-04T04:07:39;101389.25;;;10.15;100.00
4586;BME280;2305;50.118;8.952;2024-02-04T04:10:11;101397.00;;;10.04;100.00
4586;BME280;2305;50.118;8.952;2024-02-04T04:12:39;101399.13;;;10.11;100.00
4586;BME280;2305;50.118;8.952;2024-02-04T04:15:07;101402.59;;;9.98;100.00
4586;BME280;2305;50.118;8.952;2024-02-04T04:17:35;101408.34;;;10.04;100.00
4586;BME280;2305;50.118;8.952;2024-02-04T04:20:07;101409.38;;;10.02;100.00
4586;BME280;2305;50.118;8.952;2024-02-04T04:22:38;101415.47;;;10.02;100.00
4586;BME280;2305;50.118;8.952;2024-02-04T04:25:08;101410.22;;;10.02;100.00
4586;BME280;2305;50.118;8.952;2024-02-04T04:27:41;101412.81;;;10.04;100.00
4586;BME280;2305;50.118;8.952;2024-02-04T04:30:12;101411.34;;;10.26;100.00
4586;BME280;2305;50.118;8.952;2024-02-04T04:32:40;101412.13;;;10.14;100.00
4586;BME280;2305;50.118;8.952;2024-02-04T04:35:10;101417.31;;;10.16;100.00
4586;BME280;2305;50.118;8.952;2024-02-04T04:37:38;101416.13;;;10.34;100.00
4586;BME280;2305;50.118;8.952;2024-02-04T04:40:08;101413.97;;;10.26;100.00
4586;BME280;2305;50.118;8.952;2024-02-04T04:42:36;101405.47;;;10.09;100.00
4586;BME280;2305;50.118;8.952;2024-02-04T04:45:05;101407.28;;;10.35;100.00
4586;BME280;2305;50.118;8.952;2024-02-04T04:47:34;101403.72;;;10.36;100.00
4586;BME280;2305;50.118;8.952;2024-02-04T04:50:04;101394.97;;;10.35;100.00
4586;BME280;2305;50.118;8.952;2024-02-04T04:52:38;101396.03;;;10.19;100.00
4586;BME280;2305;50.118;8.952;2024-02-04T04:55:07;101403.19;;;10.17;100.00
4586;BME280;2305;50.118;8.952;2024-02-04T04:57:35;101416.06;;;10.35;100.00
4586;BME280;2305;50.118;8.952;2024-02-04T05:00:08;101410.25;;;10.16;100.00
4586;BME280;2305;50.118;8.952;2024-02-04T05:02:40;101401.59;;;10.14;100.00
4586;BME280;2305;50.118;8.952;2024-02-04T05:05:11;101411.19;;;10.15;100.00
4586;BME280;2305;50.118;8.952;2024-02-04T05:07:42;101408.56;;;10.15;100.00
4586;BME280;2305;50.118;8.952;2024-02-04T05:10:13;101409.56;;;10.27;100.00
4586;BME280;2305;50.118;8.952;2024-02-04T05:12:42;101402.50;;;10.41;100.00
4586;BME280;2305;50.118;8.952;2024-02-04T05:15:11;101397.44;;;10.24;100.00
4586;BME280;2305;50.118;8.952;2024-02-04T05:17:40;101399.53;;;10.19;100.00
4586;BME280;2305;50.118;8.952;2024-02-04T05:20:12;101397.94;;;10.17;100.00
4586;BME280;2305;50.118;8.952;2024-02-04T05:22:42;101390.88;;;10.44;100.00
4586;BME280;2305;50.118;8.952;2024-02-04T05:25:10;101400.59;;;10.43;100.00
4586;BME280;2305;50.118;8.952;2024-02-04T05:27:38;101396.28;;;10.42;100.00
4586;BME280;2305;50.118;8.952;2024-02-04T05:30:09;101382.94;;;10.31;100.00
4586;BME280;2305;50.118;8.952;2024-02-04T05:32:37;101397.22;;;10.41;100.00
4586;BME280;2305;50.118;8.952;2024-02-04T05:35:07;101405.66;;;10.46;100.00
4586;BME280;2305;50.118;8.952;2024-02-04T05:37:35;101396.81;;;10.47;100.00
4586;BME280;2305;50.118;8.952;2024-02-04T05:40:11;101397.03;;;10.44;100.00
4586;BME280;2305;50.118;8.952;2024-02-04T05:42:42;101398.66;;;10.33;100.00
4586;BME280;2305;50.118;8.952;2024-02-04T05:45:10;101403.78;;;10.48;100.00
4586;BME280;2305;50.118;8.952;2024-02-04T05:47:44;101401.63;;;10.41;100.00
4586;BME280;2305;50.118;8.952;2024-02-04T05:50:15;101395.13;;;10.46;100.00
4586;BME280;2305;50.118;8.952;2024-02-04T05:52:43;101413.09;;;10.54;100.00
4586;BME280;2305;50.118;8.952;2024-02-04T05:55:12;101400.03;;;10.38;100.00
4586;BME280;2305;50.118;8.952;2024-02-04T05:57:40;101414.22;;;10.50;100.00
4586;BME280;2305;50.118;8.952;2024-02-04T06:00:09;101415.56;;;10.43;100.00
4586;BME280;2305;50.118;8.952;2024-02-04T06:02:38;101421.56;;;10.59;100.00
4586;BME280;2305;50.118;8.952;2024-02-04T06:05:07;101414.44;;;10.47;100.00
4586;BME280;2305;50.118;8.952;2024-02-04T06:07:35;101423.56;;;10.41;100.00
4586;BME280;2305;50.118;8.952;2024-02-04T06:10:04;101421.84;;;10.40;100.00
4586;BME280;2305;50.118;8.952;2024-02-04T06:12:36;101426.78;;;10.32;100.00
4586;BME280;2305;50.118;8.952;2024-02-04T06:15:05;101415.56;;;10.43;100.00
4586;BME280;2305;50.118;8.952;2024-02-04T06:17:33;101405.47;;;10.49;100.00
4586;BME280;2305;50.118;8.952;2024-02-04T06:20:03;101400.94;;;10.51;100.00
4586;BME280;2305;50.118;8.952;2024-02-04T06:22:34;101400.25;;;10.35;100.00
4586;BME280;2305;50.118;8.952;2024-02-04T06:25:02;101400.25;;;10.35;100.00
4586;BME280;2305;50.118;8.952;2024-02-04T06:27:30;101405.38;;;10.51;100.00
4586;BME280;2305;50.118;8.952;2024-02-04T06:30:00;101389.31;;;10.41;100.00
4586;BME280;2305;50.118;8.952;2024-02-04T06:32:28;101392.78;;;10.42;100.00
4586;BME280;2305;50.118;8.952;2024-02-04T06:35:00;101392.31;;;10.49;100.00
4586;BME280;2305;50.118;8.952;2024-02-04T06:37:30;101374.91;;;10.47;100.00
4586;BME280;2305;50.118;8.952;2024-02-04T06:39:58;101391.09;;;10.41;100.00
4586;BME280;2305;50.118;8.952;2024-02-04T06:42:26;101399.25;;;10.50;100.00
4586;BME280;2305;50.118;8.952;2024-02-04T06:44:55;101386.75;;;10.54;100.00
4586;BME280;2305;50.118;8.952;2024-02-04T06:47:26;101378.66;;;10.43;100.00
4586;BME280;2305;50.118;8.952;2024-02-04T06:49:54;101373.56;;;10.54;100.00
4586;BME280;2305;50.118;8.952;2024-02-04T06:52:23;101385.88;;;10.53;100.00
4586;BME280;2305;50.118;8.952;2024-02-04T06:54:53;101400.06;;;10.65;100.00
4586;BME280;2305;50.118;8.952;2024-02-04T06:57:22;101377.53;;;10.47;100.00
4586;BME280;2305;50.118;8.952;2024-02-04T06:59:53;101365.41;;;10.44;100.00
4586;BME280;2305;50.118;8.952;2024-02-04T07:02:21;101373.31;;;10.44;100.00
4586;BME280;2305;50.118;8.952;2024-02-04T07:04:51;101375.53;;;10.50;100.00
4586;BME280;2305;50.118;8.952;2024-02-04T07:07:24;101381.47;;;10.54;100.00
4586;BME280;2305;50.118;8.952;2024-02-04T07:09:55;101384.88;;;10.42;100.00
4586;BME280;2305;50.118;8.952;2024-02-04T07:12:24;101375.34;;;10.53;100.00
4586;BME280;2305;50.118;8.952;2024-02-04T07:14:52;101382.25;;;10.68;100.00
4586;BME280;2305;50.118;8.952;2024-02-04T07:17:24;101362.72;;;10.58;100.00
4586;BME280;2305;50.118;8.952;2024-02-04T07:19:55;101370.97;;;10.66;100.00
4586;BME280;2305;50.118;8.952;2024-02-04T07:22:23;101383.91;;;10.57;100.00
4586;BME280;2305;50.118;8.952;2024-02-04T07:24:53;101380.81;;;10.50;100.00
4586;BME280;2305;50.118;8.952;2024-02-04T07:27:22;101390.72;;;10.73;100.00
4586;BME280;2305;50.118;8.952;2024-02-04T07:29:49;101396.13;;;10.58;100.00
4586;BME280;2305;50.118;8.952;2024-02-04T07:32:18;101385.75;;;10.69;100.00
4586;BME280;2305;50.118;8.952;2024-02-04T07:34:46;101385.41;;;10.61;100.00
4586;BME280;2305;50.118;8.952;2024-02-04T07:37:15;101396.97;;;10.58;100.00
4586;BME280;2305;50.118;8.952;2024-02-04T07:39:44;101402.63;;;10.52;100.00
4586;BME280;2305;50.118;8.952;2024-02-04T07:42:12;101392.19;;;10.51;100.00
4586;BME280;2305;50.118;8.952;2024-02-04T07:44:40;101390.59;;;10.62;100.00
4586;BME280;2305;50.118;8.952;2024-02-04T07:47:10;101391.94;;;10.94;100.00
4586;BME280;2305;50.118;8.952;2024-02-04T07:49:38;101387.78;;;10.78;100.00
4586;BME280;2305;50.118;8.952;2024-02-04T07:52:07;101392.06;;;10.66;100.00
4586;BME280;2305;50.118;8.952;2024-02-04T07:54:37;101393.44;;;10.72;100.00
4586;BME280;2305;50.118;8.952;2024-02-04T07:57:07;101391.88;;;10.69;100.00
4586;BME280;2305;50.118;8.952;2024-02-04T07:59:37;101391.97;;;10.68;100.00
4586;BME280;2305;50.118;8.952;2024-02-04T08:02:05;101381.41;;;10.68;100.00
4586;BME280;2305;50.118;8.952;2024-02-04T08:04:34;101375.63;;;11.02;100.00
4586;BME280;2305;50.118;8.952;2024-02-04T08:07:02;101383.38;;;10.91;100.00
4586;BME280;2305;50.118;8.952;2024-02-04T08:09:31;101369.56;;;10.87;100.00
4586;BME280;2305;50.118;8.952;2024-02-04T08:12:01;101386.00;;;10.78;100.00
4586;BME280;2305;50.118;8.952;2024-02-04T08:14:33;101400.13;;;10.77;100.00
4586;BME280;2305;50.118;8.952;2024-02-04T08:17:03;101382.41;;;10.79;100.00
4586;BME280;2305;50.118;8.952;2024-02-04T08:19:36;101370.91;;;10.80;100.00
4586;BME280;2305;50.118;8.952;2024-02-04T08:22:04;101364.69;;;10.81;100.00
4586;BME280;2305;50.118;8.952;2024-02-04T08:24:34;101379.44;;;10.71;100.00
4586;BME280;2305;50.118;8.952;2024-02-04T08:27:07;101370.41;;;10.88;100.00
4586;BME280;2305;50.118;8.952;2024-02-04T08:29:36;101374.28;;;10.82;100.00
4586;BME280;2305;50.118;8.952;2024-02-04T08:32:05;101371.19;;;10.63;100.00
4586;BME280;2305;50.118;8.952;2024-02-04T08:34:40;101363.94;;;10.79;100.00
4586;BME280;2305;50.118;8.952;2024-02-04T08:37:11;101374.97;;;10.72;100.00
4586;BME280;2305;50.118;8.952;2024-02-04T08:39:47;101377.13;;;10.79;100.00
4586;BME280;2305;50.118;8.952;2024-02-04T08:42:20;101372.41;;;10.84;100.00
4586;BME280;2305;50.118;8.952;2024-02-04T08:44:54;101381.63;;;10.91;100.00
4586;BME280;2305;50.118;8.952;2024-02-04T08:47:22;101381.06;;;10.86;100.00
4586;BME280;2305;50.118;8.952;2024-02-04T08:49:52;101382.13;;;10.96;100.00
4586;BME280;2305;50.118;8.952;2024-02-04T08:52:22;101391.13;;;11.06;100.00
4586;BME280;2305;50.118;8.952;2024-02-04T08:54:54;101385.00;;;11.06;100.00
4586;BME280;2305;50.118;8.952;2024-02-04T08:57:26;101389.56;;;11.29;100.00
4586;BME280;2305;50.118;8.952;2024-02-04T08:59:56;101395.06;;;11.26;100.00
4586;BME280;2305;50.118;8.952;2024-02-04T09:02:24;101374.91;;;11.25;100.00
4586;BME280;2305;50.118;8.952;2024-02-04T09:04:54;101390.13;;;11.21;100.00
4586;BME280;2305;50.118;8.952;2024-02-04T09:07:24;101376.69;;;11.24;100.00
4586;BME280;2305;50.118;8.952;2024-02-04T09:09:58;101371.66;;;11.34;100.00
4586;BME280;2305;50.118;8.952;2024-02-04T09:12:31;101370.28;;;11.28;100.00
4586;BME280;2305;50.118;8.952;2024-02-04T09:15:04;101368.38;;;11.43;100.00
4586;BME280;2305;50.118;8.952;2024-02-04T09:17:34;101367.56;;;11.42;100.00
4586;BME280;2305;50.118;8.952;2024-02-04T09:20:02;101373.47;;;11.46;100.00
4586;BME280;2305;50.118;8.952;2024-02-04T09:22:33;101368.38;;;11.30;100.00
4586;BME280;2305;50.118;8.952;2024-02-04T09:25:01;101371.66;;;11.34;100.00
4586;BME280;2305;50.118;8.952;2024-02-04T09:27:32;101366.78;;;11.15;100.00
4586;BME280;2305;50.118;8.952;2024-02-04T09:30:09;101370.28;;;11.16;100.00
4586;BME280;2305;50.118;8.952;2024-02-04T09:32:37;101363.72;;;11.21;100.00
4586;BME280;2305;50.118;8.952;2024-02-04T09:35:07;101364.22;;;11.14;100.00
4586;BME280;2305;50.118;8.952;2024-02-04T09:37:36;101380.75;;;11.30;100.00
4586;BME280;2305;50.118;8.952;2024-02-04T09:40:04;101367.56;;;11.30;100.00
4586;BME280;2305;50.118;8.952;2024-02-04T09:42:34;101360.69;;;11.40;100.00
4586;BME280;2305;50.118;8.952;2024-02-04T09:45:05;101351.72;;;11.42;100.00
4586;BME280;2305;50.118;8.952;2024-02-04T09:47:35;101358.56;;;11.32;100.00
4586;BME280;2305;50.118;8.952;2024-02-04T09:50:03;101359.72;;;11.41;100.00
4586;BME280;2305;50.118;8.952;2024-02-04T09:52:33;101352.03;;;11.38;100.00
4586;BME280;2305;50.118;8.952;2024-02-04T09:55:03;101362.16;;;11.56;100.00
4586;BME280;2305;50.118;8.952;2024-02-04T09:57:35;101347.81;;;11.60;100.00
4586;BME280;2305;50.118;8.952;2024-02-04T10:00:05;101364.63;;;11.59;100.00
4586;BME280;2305;50.118;8.952;2024-02-04T10:02:41;101342.97;;;11.67;100.00
4586;BME280;2305;50.118;8.952;2024-02-04T10:05:11;101346.69;;;11.64;100.00
4586;BME280;2305;50.118;8.952;2024-02-04T10:07:39;101354.03;;;11.72;100.00
4586;BME280;2305;50.118;8.952;2024-02-04T10:10:08;101356.91;;;11.69;100.00
4586;BME280;2305;50.118;8.952;2024-02-04T10:12:39;101358.59;;;11.70;100.00
4586;BME280;2305;50.118;8.952;2024-02-04T10:15:10;101359.31;;;11.72;100.00
4586;BME280;2305;50.118;8.952;2024-02-04T10:17:42;101350.56;;;11.71;100.00
4586;BME280;2305;50.118;8.952;2024-02-04T10:20:13;101344.31;;;11.85;100.00
4586;BME280;2305;50.118;8.952;2024-02-04T10:22:46;101346.03;;;11.73;100.00
4586;BME280;2305;50.118;8.952;2024-02-04T10:25:23;101349.94;;;11.80;100.00
4586;BME280;2305;50.118;8.952;2024-02-04T10:27:54;101356.06;;;11.81;100.00
4586;BME280;2305;50.118;8.952;2024-02-04T10:30:23;101349.41;;;11.88;100.00
4586;BME280;2305;50.118;8.952;2024-02-04T10:32:52;101352.56;;;11.80;100.00
4586;BME280;2305;50.118;8.952;2024-02-04T10:35:24;101346.44;;;11.92;100.00
4586;BME280;2305;50.118;8.952;2024-02-04T10:37:53;101336.59;;;11.94;100.00
4586;BME280;2305;50.118;8.952;2024-02-04T10:40:23;101328.47;;;11.97;100.00
4586;BME280;2305;50.118;8.952;2024-02-04T10:42:57;101353.69;;;12.01;100.00
4586;BME280;2305;50.118;8.952;2024-02-04T10:45:32;101323.56;;;12.04;100.00
4586;BME280;2305;50.118;8.952;2024-02-04T10:48:02;101335.69;;;12.19;100.00
4586;BME280;2305;50.118;8.952;2024-02-04T10:50:34;101311.47;;;12.25;100.00
4586;BME280;2305;50.118;8.952;2024-02-04T10:53:05;101339.84;;;12.34;100.00
4586;BME280;2305;50.118;8.952;2024-02-04T10:55:40;101309.28;;;12.42;100.00
4586;BME280;2305;50.118;8.952;2024-02-04T10:58:13;101327.16;;;12.39;100.00
4586;BME280;2305;50.118;8.952;2024-02-04T11:00:42;101319.34;;;12.37;100.00
4586;BME280;2305;50.118;8.952;2024-02-04T11:03:11;101320.28;;;12.36;100.00
4586;BME280;2305;50.118;8.952;2024-02-04T11:05:39;101299.94;;;12.49;100.00
4586;BME280;2305;50.118;8.952;2024-02-04T11:08:11;101305.44;;;12.46;100.00
4586;BME280;2305;50.118;8.952;2024-02-04T11:10:39;101300.00;;;12.37;100.00
4586;BME280;2305;50.118;8.952;2024-02-04T11:13:22;101316.69;;;12.37;100.00
4586;BME280;2305;50.118;8.952;2024-02-04T11:15:53;101298.81;;;12.41;100.00
4586;BME280;2305;50.118;8.952;2024-02-04T11:18:54;101298.63;;;12.31;100.00
4586;BME280;2305;50.118;8.952;2024-02-04T11:22:02;101288.47;;;12.38;100.00
4586;BME280;2305;50.118;8.952;2024-02-04T11:24:59;101294.38;;;12.41;100.00
4586;BME280;2305;50.118;8.952;2024-02-04T11:27:31;101281.72;;;12.34;100.00
4586;BME280;2305;50.118;8.952;2024-02-04T11:30:09;101276.34;;;12.46;100.00
4586;BME280;2305;50.118;8.952;2024-02-04T11:32:37;101272.53;;;12.50;100.00
4586;BME280;2305;50.118;8.952;2024-02-04T11:35:07;101276.03;;;12.51;100.00
4586;BME280;2305;50.118;8.952;2024-02-04T11:37:38;101278.44;;;12.54;100.00
4586;BME280;2305;50.118;8.952;2024-02-04T11:40:14;101291.03;;;12.50;100.00
4586;BME280;2305;50.118;8.952;2024-02-04T11:42:44;101278.28;;;12.44;100.00
4586;BME280;2305;50.118;8.952;2024-02-04T11:45:16;101295.97;;;12.44;100.00
4586;BME280;2305;50.118;8.952;2024-02-04T11:47:45;101297.13;;;12.40;100.00
4586;BME280;2305;50.118;8.952;2024-02-04T11:50:27;101286.66;;;12.38;100.00
4586;BME280;2305;50.118;8.952;2024-02-04T11:53:04;101278.25;;;12.33;100.00
4586;BME280;2305;50.118;8.952;2024-02-04T11:55:35;101284.06;;;12.49;100.00
4586;BME280;2305;50.118;8.952;2024-02-04T11:58:09;101281.44;;;12.49;100.00
4586;BME280;2305;50.118;8.952;2024-02-04T12:00:42;101276.69;;;12.65;100.00
4586;BME280;2305;50.118;8.952;2024-02-04T12:03:11;101263.44;;;12.54;100.00
4586;BME280;2305;50.118;8.952;2024-02-04T12:05:40;101272.44;;;12.52;100.00
4586;BME280;2305;50.118;8.952;2024-02-04T12:08:11;101271.31;;;12.43;100.00
4586;BME280;2305;50.118;8.952;2024-02-04T12:10:40;101270.50;;;12.54;100.00
4586;BME280;2305;50.118;8.952;2024-02-04T12:13:08;101271.69;;;12.50;100.00
4586;BME280;2305;50.118;8.952;2024-02-04T12:15:37;101264.78;;;12.60;100.00
4586;BME280;2305;50.118;8.952;2024-02-04T12:18:24;101278.09;;;12.58;100.00
4586;BME280;2305;50.118;8.952;2024-02-04T12:20:57;101261.28;;;12.59;100.00
4586;BME280;2305;50.118;8.952;2024-02-04T12:23:53;101264.88;;;12.58;100.00
4586;BME280;2305;50.118;8.952;2024-02-04T12:26:22;101263.19;;;12.57;100.00
4586;BME280;2305;50.118;8.952;2024-02-04T12:28:51;101271.03;;;12.70;100.00
4586;BME280;2305;50.118;8.952;2024-02-04T12:31:21;101248.00;;;12.72;100.00
4586;BME280;2305;50.118;8.952;2024-02-04T12:33:53;101229.69;;;12.69;100.00
4586;BME280;2305;50.118;8.952;2024-02-04T12:36:29;101247.91;;;12.84;100.00
4586;BME280;2305;50.118;8.952;2024-02-04T12:39:02;101243.31;;;12.86;100.00
4586;BME280;2305;50.118;8.952;2024-02-04T12:41:31;101234.06;;;12.81;100.00
4586;BME280;2305;50.118;8.952;2024-02-04T12:44:00;101247.16;;;12.82;100.00
4586;BME280;2305;50.118;8.952;2024-02-04T12:46:30;101232.56;;;13.00;100.00
4586;BME280;2305;50.118;8.952;2024-02-04T12:48:59;101236.47;;;12.84;100.00
4586;BME280;2305;50.118;8.952;2024-02-04T12:51:33;101235.75;;;12.82;100.00
4586;BME280;2305;50.118;8.952;2024-02-04T12:54:03;101227.44;;;12.86;100.00
4586;BME280;2305;50.118;8.952;2024-02-04T12:56:46;101233.34;;;12.79;100.00
4586;BME280;2305;50.118;8.952;2024-02-04T12:59:25;101233.19;;;12.69;100.00
4586;BME280;2305;50.118;8.952;2024-02-04T13:01:58;101229.22;;;12.75;100.00
4586;BME280;2305;50.118;8.952;2024-02-04T13:04:34;101229.03;;;12.89;100.00
4586;BME280;2305;50.118;8.952;2024-02-04T13:07:07;101229.84;;;12.89;100.00
4586;BME280;2305;50.118;8.952;2024-02-04T13:09:37;101238.03;;;12.86;100.00
4586;BME280;2305;50.118;8.952;2024-02-04T13:12:06;101217.34;;;12.80;100.00
4586;BME280;2305;50.118;8.952;2024-02-04T13:14:35;101219.16;;;12.80;100.00
4586;BME280;2305;50.118;8.952;2024-02-04T13:17:04;101219.34;;;13.00;100.00